Joliet, IL (60436)

11:28 PM CDT on July 24, 2016 (GMT -0500)
Joliet Schutzhund | | Change Station
Active Advisory: Areal Flood Advisory Active Notice: Public Information Statement

Elev 613 ft 41.50 °N, 88.08 °W | Updated 1 second ago

Scattered Clouds
Scattered Clouds
76.9 °F
Feels Like 78 °F
N
0.0
Wind Variable Wind from SE
Gusts 1.0 mph

Today
High -- | Low -- °F
--% Chance of Precip.
Yesterday
High -- | Low -- °F
Precip. -- in
Pressure 29.92 in
Visibility 10.0 miles
Clouds Scattered Clouds 2800 ft
Heat Index 78 °F
Dew Point 71 °F
Humidity 81%
Rainfall 0.11 in
Snow Depth Not available.
5:40 AM 8:17 PM
Waning Gibbous, 70% visible
METAR KJOT 250415Z AUTO 19007KT 10SM SCT028 25/20 A2992 RMK AO2 LTG DSNT E THRU S T02450203
Pressure 29.92 in
Visibility 10.0 miles
Clouds Scattered Clouds 2800 ft
Heat Index 78 °F
Dew Point 71 °F
Humidity 81%
Rainfall 0.11 in
Snow Depth Not available.
5:40 AM 8:17 PM
Waning Gibbous, 70% visible
METAR KJOT 250415Z AUTO 19007KT 10SM SCT028 25/20 A2992 RMK AO2 LTG DSNT E THRU S T02450203

10-Day Weather Forecast

Almanac

Astronomy

Jul. 24, 2016 Rise Set
Actual Time
Civil Twilight
Nautical Twilight
Astronomical Twilight
Moon
Length of Visible Light
Length of Day
Tomorrow will be .
, % of the Moon is Illuminated

Today's Extremes

State Highs State Lows

Community

WunderPhotos

Upload Photos

1,927,264 photos uploaded!

WunderBlog® & News

Nearby

Air Quality

  Air Quality AQ Index Pollutant
Not available.

Snow Depth

Station Depth Elevation

Earthquake Activity

City Distance Mag. Time & Date
Minimum magnitude displayed is 2.5.

Coastal Water Temperatures

Place Temperature

Stations

Nearby Weather Stations

Station Location Temp. Windchill Dew Point Humidity Wind Precip. Elev Updated Type
                   

Watches & Warnings

Areal Flood Advisory
Issued: 11:25 PM CDT Jul. 24, 2016 – National Weather Service

... The Urban and Small Stream Flood Advisory will expire at 1130 PM
CDT for southeastern dupage... north central will... southeastern Cook
and Northern Lake counties...

The heavy rain has ended... and flooding is no longer expected to pose
a threat.

Lat... Lon 4153 8802 4186 8792 4168 8755 4175 8754
      4174 8753 4174 8754 4173 8752 4171 8753
      4167 8747 4167 8744 4168 8743 4167 8742
      4165 8744 4164 8743 4162 8729 4162 8722
      4149 8722


Donofrio